createdAt,value
2023-04-19T00:00:54.380Z,24.37
2023-04-19T00:03:24.868Z,23.47
2023-04-19T00:05:54.383Z,23.39
2023-04-19T00:08:23.886Z,23.25
2023-04-19T00:10:52.045Z,23.12
2023-04-19T00:13:20.633Z,23.03
2023-04-19T00:15:49.078Z,23.02
2023-04-19T00:18:17.174Z,22.80
2023-04-19T00:20:45.082Z,22.92
2023-04-19T00:23:13.171Z,22.77
2023-04-19T00:28:44.421Z,18.97
2023-04-19T00:31:12.667Z,20.57
2023-04-19T00:33:40.613Z,21.13
2023-04-19T00:36:09.934Z,21.32
2023-04-19T00:38:37.969Z,21.75
2023-04-19T00:41:05.905Z,21.96
2023-04-19T00:43:34.043Z,22.08
2023-04-19T00:46:02.072Z,21.94
2023-04-19T00:48:30.961Z,22.22
2023-04-19T00:50:58.878Z,22.18
2023-04-19T00:53:26.824Z,22.36
2023-04-19T00:55:55.112Z,22.19
2023-04-19T00:58:23.582Z,22.02
2023-04-19T01:00:51.830Z,22.33
2023-04-19T01:03:23.126Z,21.74
2023-04-19T01:05:52.753Z,21.38
2023-04-19T01:08:21.260Z,21.68
2023-04-19T01:10:49.274Z,21.86
2023-04-19T01:13:17.274Z,22.22
2023-04-19T01:15:45.474Z,22.15
2023-04-19T01:18:14.279Z,22.00
2023-04-19T01:20:43.972Z,22.18
2023-04-19T01:23:12.496Z,22.20
2023-04-19T01:25:40.411Z,22.17
2023-04-19T01:28:08.305Z,22.15
2023-04-19T01:30:36.944Z,22.08
2023-04-19T01:33:05.006Z,21.43
2023-04-19T01:35:34.168Z,21.76
2023-04-19T01:38:02.338Z,21.90
2023-04-19T01:40:30.427Z,21.27
2023-04-19T01:42:59.307Z,21.24
2023-04-19T01:45:27.598Z,21.21
2023-04-19T01:47:56.128Z,21.36
2023-04-19T01:50:24.118Z,21.56
2023-04-19T01:52:52.023Z,21.36
2023-04-19T01:55:19.943Z,21.34
2023-04-19T01:57:47.979Z,21.32
2023-04-19T02:00:18.060Z,21.28
2023-04-19T02:02:48.644Z,21.22
2023-04-19T02:05:16.887Z,21.38
2023-04-19T02:07:44.948Z,21.43
2023-04-19T02:10:12.830Z,21.62
2023-04-19T02:12:42.638Z,21.42
2023-04-19T02:15:10.709Z,21.57
2023-04-19T02:17:39.025Z,21.44
2023-04-19T02:20:09.120Z,21.35
2023-04-19T02:22:37.140Z,21.42
2023-04-19T02:25:05.678Z,21.41
2023-04-19T02:27:35.138Z,21.41
2023-04-19T02:30:03.092Z,21.52
2023-04-19T02:32:32.716Z,21.46
2023-04-19T02:35:01.108Z,21.41
2023-04-19T02:37:30.975Z,21.32
2023-04-19T02:39:59.004Z,21.18
2023-04-19T02:42:29.011Z,21.13
2023-04-19T02:44:57.173Z,21.27
2023-04-19T02:47:25.586Z,21.23
2023-04-19T02:49:53.511Z,21.27
2023-04-19T02:52:21.695Z,21.28
2023-04-19T02:54:49.639Z,21.32
2023-04-19T02:57:17.610Z,21.51
2023-04-19T02:59:46.090Z,21.57
2023-04-19T03:02:14.011Z,21.70
2023-04-19T03:04:43.653Z,21.86
2023-04-19T03:07:13.934Z,21.72
2023-04-19T03:09:42.355Z,20.90
2023-04-19T03:12:10.389Z,20.84
2023-04-19T03:14:39.548Z,20.71
2023-04-19T03:17:07.521Z,20.76
2023-04-19T03:19:37.530Z,20.66
2023-04-19T03:22:06.318Z,20.47
2023-04-19T03:24:37.576Z,20.66
2023-04-19T03:27:16.413Z,20.61
2023-04-19T03:29:46.671Z,21.06
2023-04-19T03:32:16.263Z,21.60
2023-04-19T03:34:44.222Z,21.94
2023-04-19T03:37:14.015Z,22.22
2023-04-19T03:39:42.597Z,22.53
2023-04-19T03:42:14.234Z,22.79
2023-04-19T03:44:50.642Z,23.03
2023-04-19T03:47:18.995Z,23.19
2023-04-19T03:49:48.892Z,23.23
2023-04-19T03:52:18.194Z,23.37
2023-04-19T03:54:46.414Z,23.60
2023-04-19T03:57:26.353Z,23.89
2023-04-19T03:59:54.852Z,24.38
2023-04-19T04:02:22.985Z,24.57
2023-04-19T04:04:55.293Z,24.41
2023-04-19T04:07:24.743Z,24.78
2023-04-19T04:09:53.059Z,25.09
2023-04-19T04:12:20.989Z,26.00
2023-04-19T04:14:49.602Z,27.06
2023-04-19T04:17:17.640Z,27.07
2023-04-19T04:19:45.785Z,27.00
2023-04-19T04:22:14.278Z,26.90
2023-04-19T04:24:44.111Z,26.44
2023-04-19T04:27:24.257Z,26.20
2023-04-19T04:29:54.773Z,26.02
2023-04-19T04:32:23.985Z,26.32
2023-04-19T04:34:55.377Z,27.44
2023-04-19T04:37:31.227Z,27.54
2023-04-19T04:40:01.313Z,27.07
2023-04-19T04:42:31.522Z,27.66
2023-04-19T04:45:01.647Z,28.09
2023-04-19T04:47:32.466Z,27.94
2023-04-19T04:50:02.550Z,28.44
2023-04-19T04:52:30.860Z,28.67
2023-04-19T04:55:28.308Z,28.79
2023-04-19T04:57:56.437Z,29.06
2023-04-19T05:00:31.051Z,29.46
2023-04-19T05:03:04.894Z,29.20
2023-04-19T05:05:36.317Z,29.58
2023-04-19T05:08:04.817Z,29.64
2023-04-19T05:10:33.205Z,29.83
2023-04-19T05:13:05.564Z,30.05
2023-04-19T05:15:34.672Z,30.08
2023-04-19T05:18:02.720Z,29.98
2023-04-19T05:20:31.019Z,30.47
2023-04-19T05:23:13.703Z,29.96
2023-04-19T05:25:42.450Z,30.54
2023-04-19T05:28:11.303Z,30.51
2023-04-19T05:31:02.258Z,30.86
2023-04-19T05:33:34.864Z,30.33
2023-04-19T05:36:02.974Z,30.66
2023-04-19T05:38:31.226Z,29.87
2023-04-19T05:40:59.756Z,29.97
2023-04-19T05:43:27.662Z,29.79
2023-04-19T05:45:56.375Z,29.16
2023-04-19T05:48:25.648Z,28.70
2023-04-19T05:51:01.065Z,28.27
2023-04-19T05:53:57.447Z,27.91
2023-04-19T05:56:26.320Z,27.88
2023-04-19T05:58:56.262Z,27.82
2023-04-19T06:01:24.368Z,28.08
2023-04-19T06:03:53.346Z,28.78
2023-04-19T06:06:22.636Z,29.16
2023-04-19T06:08:52.028Z,29.51
2023-04-19T06:11:31.452Z,30.26
2023-04-19T06:14:06.677Z,31.10
2023-04-19T06:16:34.864Z,31.51
2023-04-19T06:19:03.630Z,32.61
2023-04-19T06:21:31.958Z,32.63
2023-04-19T06:24:00.739Z,32.87
2023-04-19T06:26:28.906Z,33.17
2023-04-19T06:28:56.938Z,32.98
2023-04-19T06:31:24.983Z,33.07
2023-04-19T06:33:52.918Z,33.49
2023-04-19T06:36:20.828Z,33.48
2023-04-19T06:38:50.054Z,32.92
2023-04-19T06:41:18.428Z,33.26
2023-04-19T06:43:46.864Z,33.52
2023-04-19T06:46:15.933Z,33.85
2023-04-19T06:48:44.194Z,34.56
2023-04-19T06:51:12.335Z,35.10
2023-04-19T06:53:40.395Z,34.18
2023-04-19T06:56:08.305Z,34.28
2023-04-19T06:58:36.928Z,35.05
2023-04-19T07:01:05.108Z,34.68
2023-04-19T07:03:33.259Z,35.25
2023-04-19T07:06:01.676Z,35.31
2023-04-19T07:08:42.462Z,35.28
2023-04-19T07:11:16.553Z,35.52
2023-04-19T07:13:44.613Z,35.36
2023-04-19T07:16:14.634Z,35.27
2023-04-19T07:18:43.890Z,35.54
2023-04-19T07:21:12.186Z,35.40
2023-04-19T07:23:40.269Z,35.45
2023-04-19T07:26:08.180Z,35.20
2023-04-19T07:28:36.142Z,35.30
2023-04-19T07:31:04.126Z,35.33
2023-04-19T07:33:32.430Z,35.43
2023-04-19T07:36:00.415Z,35.44
2023-04-19T07:38:29.353Z,34.32
2023-04-19T07:40:57.300Z,34.83
2023-04-19T07:43:26.146Z,34.12
2023-04-19T07:45:54.370Z,33.84
2023-04-19T07:48:22.377Z,33.63
2023-04-19T07:50:50.595Z,34.56
2023-04-19T07:53:18.697Z,34.83
2023-04-19T07:55:46.844Z,34.73
2023-04-19T07:58:14.987Z,35.36
2023-04-19T08:00:42.868Z,35.43
2023-04-19T08:03:11.086Z,35.55
2023-04-19T08:05:39.798Z,35.20
2023-04-19T08:08:07.843Z,34.94
2023-04-19T08:10:37.009Z,34.64
2023-04-19T08:13:06.576Z,34.81
2023-04-19T08:18:06.343Z,35.28
2023-04-19T08:20:34.628Z,35.40
2023-04-19T08:23:14.110Z,35.24
2023-04-19T08:25:49.309Z,35.11
2023-04-19T08:28:18.473Z,35.38
2023-04-19T08:30:46.484Z,35.93
2023-04-19T08:33:14.603Z,36.13
2023-04-19T08:35:42.549Z,35.63
2023-04-19T08:38:13.509Z,35.04
2023-04-19T08:40:45.972Z,34.99
2023-04-19T08:43:13.905Z,35.20
2023-04-19T08:45:41.832Z,35.21
2023-04-19T08:48:11.854Z,35.25
2023-04-19T08:50:55.829Z,35.32
2023-04-19T08:53:29.808Z,34.55
2023-04-19T08:58:51.917Z,35.71
2023-04-19T09:04:03.378Z,35.62
2023-04-19T09:06:38.882Z,35.92
2023-04-19T09:09:35.354Z,35.95
2023-04-19T09:12:17.750Z,36.25
2023-04-19T09:17:21.498Z,36.36
2023-04-19T09:19:49.693Z,36.16
2023-04-19T09:22:18.806Z,35.87
2023-04-19T09:25:14.561Z,35.35
2023-04-19T09:27:36.916Z,34.93
2023-04-19T09:30:06.687Z,35.15
2023-04-19T09:32:48.835Z,35.09
2023-04-19T09:35:17.475Z,34.78
2023-04-19T09:38:05.410Z,34.84
2023-04-19T09:40:35.332Z,34.93
2023-04-19T09:43:23.156Z,34.67
2023-04-19T09:45:51.702Z,35.03
2023-04-19T09:48:19.836Z,35.34
2023-04-19T09:50:59.027Z,34.56
2023-04-19T09:53:32.853Z,33.98
2023-04-19T09:56:02.975Z,34.19
2023-04-19T09:58:42.529Z,34.87
2023-04-19T10:01:17.424Z,34.99
2023-04-19T10:03:46.589Z,35.25
2023-04-19T10:08:51.471Z,34.67
2023-04-19T10:11:22.034Z,34.61
2023-04-19T10:13:54.830Z,34.53
2023-04-19T10:16:22.743Z,34.13
2023-04-19T10:18:51.328Z,34.17
2023-04-19T10:21:19.709Z,33.69
2023-04-19T10:23:47.750Z,33.94
2023-04-19T10:26:16.100Z,34.14
2023-04-19T10:28:44.206Z,34.00
2023-04-19T10:31:16.090Z,34.26
2023-04-19T10:33:44.377Z,34.35
2023-04-19T10:36:15.046Z,34.36
2023-04-19T10:38:44.762Z,34.17
2023-04-19T10:41:16.991Z,33.52
2023-04-19T10:44:08.692Z,33.59
2023-04-19T10:46:38.127Z,33.86
2023-04-19T10:49:06.315Z,33.77
2023-04-19T10:51:44.362Z,33.82
2023-04-19T10:54:32.516Z,34.03
2023-04-19T10:57:06.762Z,33.65
2023-04-19T10:59:35.584Z,33.57
2023-04-19T11:02:05.051Z,33.39
2023-04-19T11:04:33.354Z,33.53
2023-04-19T11:07:05.527Z,33.60
2023-04-19T11:09:42.256Z,33.34
2023-04-19T11:12:21.059Z,33.18
2023-04-19T11:14:53.522Z,32.90
2023-04-19T11:17:27.139Z,32.37
2023-04-19T11:20:09.415Z,32.78
2023-04-19T11:22:42.767Z,33.12
2023-04-19T11:25:18.215Z,33.37
2023-04-19T11:27:51.042Z,33.35
2023-04-19T11:30:28.311Z,33.42
2023-04-19T11:32:56.762Z,33.56
2023-04-19T11:35:26.313Z,33.76
2023-04-19T11:37:55.205Z,33.41
2023-04-19T11:40:24.533Z,33.23
2023-04-19T11:42:57.454Z,33.21
2023-04-19T11:45:35.457Z,32.34
2023-04-19T11:48:07.895Z,32.66
2023-04-19T11:50:42.642Z,32.56
2023-04-19T11:53:12.459Z,32.29
2023-04-19T11:55:52.139Z,32.21
2023-04-19T11:58:25.320Z,32.23
2023-04-19T12:00:53.375Z,31.74
2023-04-19T12:03:26.016Z,32.22
2023-04-19T12:05:58.854Z,32.00
2023-04-19T12:08:32.131Z,31.25
2023-04-19T12:11:00.463Z,31.09
2023-04-19T12:13:29.602Z,31.09
2023-04-19T12:15:57.485Z,31.08
2023-04-19T12:18:25.824Z,31.26
2023-04-19T12:20:54.056Z,31.64
2023-04-19T12:23:22.281Z,31.53
2023-04-19T12:25:53.422Z,30.61
2023-04-19T12:28:21.400Z,30.78
2023-04-19T12:30:49.366Z,30.91
2023-04-19T12:33:17.477Z,30.65
2023-04-19T12:35:47.863Z,29.65
2023-04-19T12:38:17.506Z,30.21
2023-04-19T12:40:45.520Z,29.65
2023-04-19T12:45:27.010Z,26.25
2023-04-19T12:47:54.960Z,28.81
2023-04-19T12:50:22.875Z,29.05
2023-04-19T12:52:51.930Z,28.32
2023-04-19T12:55:22.776Z,29.01
2023-04-19T12:57:51.424Z,29.66
2023-04-19T13:00:20.128Z,29.62
2023-04-19T13:02:48.871Z,29.33
2023-04-19T13:05:17.136Z,29.67
2023-04-19T13:07:45.131Z,29.73
2023-04-19T13:10:13.190Z,29.33
2023-04-19T13:12:41.906Z,29.43
2023-04-19T13:15:10.350Z,29.51
2023-04-19T13:17:38.633Z,28.71
2023-04-19T13:20:07.786Z,28.46
2023-04-19T13:22:36.470Z,28.21
2023-04-19T13:25:05.494Z,28.15
2023-04-19T13:27:34.693Z,28.11
2023-04-19T13:30:02.736Z,28.19
2023-04-19T13:32:30.912Z,28.22
2023-04-19T13:34:58.790Z,28.43
2023-04-19T13:37:27.891Z,28.46
2023-04-19T13:40:06.973Z,28.69
2023-04-19T13:42:43.234Z,28.37
2023-04-19T13:45:11.794Z,28.48
2023-04-19T13:47:40.227Z,28.38
2023-04-19T13:50:08.596Z,28.73
2023-04-19T13:52:36.797Z,28.88
2023-04-19T13:55:05.162Z,28.44
2023-04-19T13:57:33.176Z,27.96
2023-04-19T14:00:01.033Z,27.66
2023-04-19T14:02:30.141Z,27.83
2023-04-19T14:04:59.660Z,27.80
2023-04-19T14:07:27.629Z,27.98
2023-04-19T14:09:56.635Z,28.17
2023-04-19T14:12:24.792Z,27.92
2023-04-19T14:14:53.781Z,27.60
2023-04-19T14:17:21.819Z,27.54
2023-04-19T14:19:49.786Z,28.12
2023-04-19T14:22:18.012Z,28.17
2023-04-19T14:24:46.282Z,28.24
2023-04-19T14:27:14.295Z,28.13
2023-04-19T14:29:42.202Z,28.16
2023-04-19T14:32:24.043Z,28.29
2023-04-19T14:34:55.876Z,28.53
2023-04-19T14:37:24.601Z,28.64
2023-04-19T14:39:52.864Z,28.63
2023-04-19T14:42:22.907Z,28.60
2023-04-19T14:44:52.108Z,28.78
2023-04-19T14:47:21.002Z,28.84
2023-04-19T14:49:49.131Z,28.74
2023-04-19T14:52:17.175Z,28.67
2023-04-19T14:54:45.496Z,28.76
2023-04-19T14:57:14.412Z,28.66
2023-04-19T14:59:42.986Z,28.65
2023-04-19T15:02:11.436Z,28.62
2023-04-19T15:04:41.347Z,28.54
2023-04-19T15:07:09.968Z,28.42
2023-04-19T15:09:38.660Z,28.39
2023-04-19T15:12:06.856Z,28.50
2023-04-19T15:14:34.920Z,28.37
2023-04-19T15:17:02.880Z,28.36
2023-04-19T15:19:30.975Z,28.24
2023-04-19T15:21:58.933Z,27.83
2023-04-19T15:24:26.826Z,28.08
2023-04-19T15:26:54.734Z,28.33
2023-04-19T15:29:22.712Z,28.56
2023-04-19T15:31:50.743Z,28.27
2023-04-19T15:34:18.831Z,28.10
2023-04-19T15:36:47.259Z,28.46
2023-04-19T15:39:15.502Z,28.50
2023-04-19T15:41:43.638Z,28.35
2023-04-19T15:44:11.802Z,28.22
2023-04-19T15:46:39.764Z,28.29
2023-04-19T15:49:07.739Z,28.39
2023-04-19T15:51:36.063Z,28.39
2023-04-19T15:54:03.999Z,28.24
2023-04-19T15:56:32.454Z,28.19
2023-04-19T15:59:00.435Z,28.13
2023-04-19T16:01:28.858Z,27.96
2023-04-19T16:03:56.972Z,27.96
2023-04-19T16:06:25.223Z,28.05
2023-04-19T16:08:53.672Z,27.96
2023-04-19T16:11:22.009Z,27.98
2023-04-19T16:13:50.014Z,28.32
2023-04-19T16:16:18.391Z,28.17
2023-04-19T16:18:47.318Z,28.09
2023-04-19T16:21:15.326Z,28.14
2023-04-19T16:23:44.314Z,28.25
2023-04-19T16:26:12.808Z,28.23
2023-04-19T16:28:41.104Z,28.24
2023-04-19T16:31:09.282Z,28.25
2023-04-19T16:33:37.331Z,28.13
2023-04-19T16:36:05.598Z,28.11
2023-04-19T16:38:33.746Z,28.37
2023-04-19T16:41:04.666Z,28.27
2023-04-19T16:43:33.139Z,27.89
2023-04-19T16:46:01.911Z,28.33
2023-04-19T16:48:29.911Z,28.23
2023-04-19T16:50:57.888Z,28.33
2023-04-19T16:53:26.149Z,27.89
2023-04-19T16:55:56.348Z,28.11
2023-04-19T16:58:24.921Z,28.00
2023-04-19T17:00:53.032Z,28.09
2023-04-19T17:03:22.032Z,28.01
2023-04-19T17:05:50.286Z,27.67
2023-04-19T17:08:18.176Z,27.88
2023-04-19T17:10:46.167Z,27.82
2023-04-19T17:13:14.146Z,27.48
2023-04-19T17:15:42.162Z,28.10
2023-04-19T17:18:10.231Z,28.29
2023-04-19T17:20:38.212Z,27.75
2023-04-19T17:23:06.413Z,27.47
2023-04-19T17:25:34.397Z,27.10
2023-04-19T17:28:02.343Z,27.00
2023-04-19T17:30:30.559Z,27.15
2023-04-19T17:32:58.689Z,27.14
2023-04-19T17:35:27.348Z,27.52
2023-04-19T17:37:55.412Z,27.45
2023-04-19T17:40:23.457Z,27.06
2023-04-19T17:42:51.378Z,27.14
2023-04-19T17:45:19.347Z,27.04
2023-04-19T17:47:55.338Z,26.98
2023-04-19T17:50:26.408Z,26.89
2023-04-19T17:52:55.095Z,27.21
2023-04-19T17:55:23.303Z,27.15
2023-04-19T17:57:51.427Z,26.78
2023-04-19T18:00:22.661Z,26.95
2023-04-19T18:02:51.766Z,27.36
2023-04-19T18:05:19.877Z,27.41
2023-04-19T18:07:48.027Z,27.71
2023-04-19T18:10:15.936Z,27.55
2023-04-19T18:12:44.544Z,27.35
2023-04-19T18:15:12.555Z,27.81
2023-04-19T18:17:41.327Z,27.71
2023-04-19T18:20:11.212Z,27.47
2023-04-19T18:22:40.399Z,27.30
2023-04-19T18:25:08.792Z,27.00
2023-04-19T18:27:37.253Z,26.99
2023-04-19T18:30:06.558Z,27.11
2023-04-19T18:32:35.696Z,27.36
2023-04-19T18:35:08.862Z,27.01
2023-04-19T18:37:37.012Z,26.34
2023-04-19T18:40:07.265Z,26.53
2023-04-19T18:42:35.681Z,26.24
2023-04-19T18:45:04.197Z,26.08
2023-04-19T18:47:33.122Z,26.24
2023-04-19T18:50:05.930Z,26.04
2023-04-19T18:52:36.057Z,26.13
2023-04-19T18:55:07.603Z,25.90
2023-04-19T18:57:36.293Z,25.71
2023-04-19T19:00:06.533Z,25.94
2023-04-19T19:02:37.069Z,25.76
2023-04-19T19:05:07.490Z,25.75
2023-04-19T19:07:37.949Z,26.03
2023-04-19T19:10:18.428Z,25.98
2023-04-19T19:12:50.033Z,26.10
2023-04-19T19:15:18.511Z,26.27
2023-04-19T19:17:49.869Z,26.24
2023-04-19T19:20:19.611Z,26.18
2023-04-19T19:22:51.440Z,25.86
2023-04-19T19:25:19.738Z,25.88
2023-04-19T19:28:05.464Z,25.97
2023-04-19T19:30:39.769Z,26.18
2023-04-19T19:33:08.024Z,26.12
2023-04-19T19:35:36.774Z,26.22
2023-04-19T19:38:04.675Z,26.37
2023-04-19T19:40:33.229Z,26.31
2023-04-19T19:43:01.606Z,26.36
2023-04-19T19:45:33.185Z,26.89
2023-04-19T19:48:01.542Z,26.39
2023-04-19T19:53:01.502Z,26.07
2023-04-19T19:55:30.392Z,25.93
2023-04-19T19:58:16.390Z,26.11
2023-04-19T20:00:50.268Z,25.66
2023-04-19T20:03:33.149Z,25.73
2023-04-19T20:06:35.651Z,25.78
2023-04-19T20:08:57.382Z,25.59
2023-04-19T20:11:25.610Z,25.41
2023-04-19T20:13:53.488Z,25.01
2023-04-19T20:16:21.612Z,25.75
2023-04-19T20:18:49.587Z,25.75
2023-04-19T20:21:18.064Z,25.43
2023-04-19T20:23:47.289Z,25.31
2023-04-19T20:26:15.497Z,25.40
2023-04-19T20:28:43.444Z,25.30
2023-04-19T20:31:11.441Z,25.29
2023-04-19T20:33:39.518Z,25.34
2023-04-19T20:36:07.748Z,25.49
2023-04-19T20:38:35.864Z,25.54
2023-04-19T20:41:03.836Z,25.28
2023-04-19T20:43:32.551Z,25.20
2023-04-19T20:46:00.646Z,24.86
2023-04-19T20:48:28.922Z,24.90
2023-04-19T20:50:56.843Z,24.56
2023-04-19T20:53:24.898Z,24.33
2023-04-19T20:55:52.790Z,24.27
2023-04-19T20:58:20.829Z,24.35
2023-04-19T21:00:49.884Z,24.58
2023-04-19T21:03:18.448Z,24.45
2023-04-19T21:05:46.449Z,24.66
2023-04-19T21:08:16.161Z,24.39
2023-04-19T21:10:44.175Z,24.38
2023-04-19T21:13:12.083Z,24.21
2023-04-19T21:15:40.017Z,24.30
2023-04-19T21:18:08.128Z,24.44
2023-04-19T21:20:36.428Z,24.68
2023-04-19T21:23:04.436Z,24.65
2023-04-19T21:25:32.362Z,24.65
2023-04-19T21:28:00.384Z,24.67
2023-04-19T21:30:29.948Z,24.84
2023-04-19T21:32:58.283Z,25.53
2023-04-19T21:35:26.421Z,25.73
2023-04-19T21:37:54.555Z,25.70
2023-04-19T21:40:22.610Z,25.69
2023-04-19T21:42:50.733Z,25.77
2023-04-19T21:45:18.736Z,25.80
2023-04-19T21:47:46.741Z,26.07
2023-04-19T21:50:14.771Z,26.04
2023-04-19T21:52:42.687Z,25.82
2023-04-19T21:55:10.678Z,25.49
2023-04-19T21:57:38.699Z,25.82
2023-04-19T22:00:09.281Z,25.81
2023-04-19T22:02:37.709Z,26.09
2023-04-19T22:05:07.394Z,26.25
2023-04-19T22:07:38.236Z,26.07
2023-04-19T22:10:07.455Z,25.94
2023-04-19T22:12:40.598Z,26.12
2023-04-19T22:15:16.274Z,26.27
2023-04-19T22:17:44.634Z,26.53
2023-04-19T22:20:13.028Z,26.10
2023-04-19T22:22:41.341Z,26.24
2023-04-19T22:25:11.995Z,25.68
2023-04-19T22:27:40.314Z,25.54
2023-04-19T22:30:08.526Z,26.12
2023-04-19T22:32:37.062Z,26.22
2023-04-19T22:35:05.871Z,25.56
2023-04-19T22:37:34.196Z,25.77
2023-04-19T22:40:02.258Z,25.98
2023-04-19T22:42:30.599Z,25.79
2023-04-19T22:44:58.757Z,25.43
2023-04-19T22:47:27.205Z,25.64
2023-04-19T22:49:55.108Z,25.65
2023-04-19T22:52:23.826Z,25.60
2023-04-19T22:54:51.857Z,25.49
2023-04-19T22:57:19.864Z,25.67
2023-04-19T22:59:48.931Z,25.81
2023-04-19T23:02:16.943Z,25.51
2023-04-19T23:04:45.115Z,25.52
2023-04-19T23:07:13.447Z,25.61
2023-04-19T23:09:41.766Z,25.28
2023-04-19T23:12:11.087Z,26.02
2023-04-19T23:14:39.489Z,26.03
2023-04-19T23:17:07.578Z,26.17
2023-04-19T23:19:37.559Z,26.03
2023-04-19T23:22:05.766Z,25.91
2023-04-19T23:24:36.200Z,25.93
2023-04-19T23:27:04.719Z,25.87
2023-04-19T23:29:32.684Z,25.79
2023-04-19T23:32:01.627Z,25.98
2023-04-19T23:34:29.672Z,26.24
2023-04-19T23:36:57.710Z,26.25
2023-04-19T23:39:25.636Z,26.24
2023-04-19T23:41:53.524Z,25.93
2023-04-19T23:44:21.487Z,25.83
2023-04-19T23:46:49.441Z,25.54
2023-04-19T23:49:17.563Z,25.58
2023-04-19T23:51:47.552Z,25.64
2023-04-19T23:54:16.836Z,25.65
2023-04-19T23:56:45.521Z,25.65
2023-04-19T23:59:13.511Z,25.80
